createdAt,value
2022-10-19T00:01:27.747Z,56.38
2022-10-19T00:03:57.788Z,57.05
2022-10-19T00:06:26.983Z,57.38
2022-10-19T00:09:00.949Z,57.43
2022-10-19T00:11:30.384Z,57.70
2022-10-19T00:14:01.994Z,58.20
2022-10-19T00:16:31.289Z,58.36
2022-10-19T00:19:04.677Z,57.95
2022-10-19T00:21:32.979Z,58.22
2022-10-19T00:24:05.779Z,57.83
2022-10-19T00:26:34.072Z,57.85
2022-10-19T00:29:05.081Z,57.94
2022-10-19T00:31:34.114Z,58.16
2022-10-19T00:34:06.684Z,58.63
2022-10-19T00:36:36.251Z,58.66
2022-10-19T00:39:07.802Z,58.93
2022-10-19T00:41:36.497Z,58.83
2022-10-19T00:44:06.199Z,58.03
2022-10-19T00:46:35.332Z,58.10
2022-10-19T00:49:10.988Z,58.12
2022-10-19T00:51:40.650Z,58.02
2022-10-19T00:54:13.489Z,58.00
2022-10-19T00:56:43.050Z,58.18
2022-10-19T00:59:13.416Z,58.00
2022-10-19T01:01:42.350Z,57.48
2022-10-19T01:04:14.586Z,57.80
2022-10-19T01:06:43.246Z,57.51
2022-10-19T01:09:16.213Z,57.43
2022-10-19T01:11:45.271Z,56.78
2022-10-19T01:14:18.187Z,57.35
2022-10-19T01:16:48.793Z,56.78
2022-10-19T01:19:30.489Z,56.95
2022-10-19T01:22:01.635Z,56.88
2022-10-19T01:24:43.581Z,56.59
2022-10-19T01:27:39.321Z,56.71
2022-10-19T01:30:10.305Z,56.92
2022-10-19T01:32:53.835Z,56.42
2022-10-19T01:35:28.787Z,56.72
2022-10-19T01:38:16.142Z,56.34
2022-10-19T01:40:46.671Z,57.05
2022-10-19T01:43:18.794Z,56.93
2022-10-19T01:45:49.256Z,56.73
2022-10-19T01:48:21.653Z,56.73
2022-10-19T01:50:51.461Z,57.01
2022-10-19T01:53:20.966Z,57.25
2022-10-19T01:55:50.671Z,57.81
2022-10-19T01:58:23.628Z,57.67
2022-10-19T02:00:54.139Z,57.90
2022-10-19T02:03:24.249Z,57.67
2022-10-19T02:05:53.066Z,57.60
2022-10-19T02:08:24.215Z,57.96
2022-10-19T02:10:53.636Z,57.31
2022-10-19T02:13:26.895Z,57.87
2022-10-19T02:15:57.067Z,57.74
2022-10-19T02:18:26.863Z,57.83
2022-10-19T02:20:55.802Z,58.82
2022-10-19T02:23:28.145Z,58.48
2022-10-19T02:25:57.039Z,58.23
2022-10-19T02:28:29.982Z,58.32
2022-10-19T02:31:00.566Z,58.44
2022-10-19T02:33:29.720Z,58.66
2022-10-19T02:35:58.140Z,58.65
2022-10-19T02:38:32.610Z,58.56
2022-10-19T02:41:04.136Z,58.33
2022-10-19T02:43:34.929Z,58.54
2022-10-19T02:46:06.026Z,58.84
2022-10-19T02:48:35.663Z,58.83
2022-10-19T02:51:03.946Z,59.00
2022-10-19T02:53:32.757Z,58.84
2022-10-19T02:56:05.404Z,58.82
2022-10-19T02:58:40.437Z,59.74
2022-10-19T03:01:10.463Z,59.21
2022-10-19T03:03:39.096Z,59.81
2022-10-19T03:06:07.694Z,59.92
2022-10-19T03:08:38.485Z,60.47
2022-10-19T03:11:07.436Z,60.41
2022-10-19T03:13:38.019Z,60.50
2022-10-19T03:16:11.477Z,60.61
2022-10-19T03:18:46.691Z,60.47
2022-10-19T03:21:14.980Z,60.74
2022-10-19T03:23:46.214Z,60.12
2022-10-19T03:26:16.941Z,60.92
2022-10-19T03:28:46.991Z,61.17
2022-10-19T03:31:16.606Z,60.69
2022-10-19T03:33:51.028Z,59.92
2022-10-19T03:36:23.351Z,59.49
2022-10-19T03:38:56.585Z,59.72
2022-10-19T03:46:38.797Z,59.38
2022-10-19T03:49:07.419Z,60.11
2022-10-19T03:51:43.824Z,59.75
2022-10-19T03:54:16.106Z,59.77
2022-10-19T03:56:45.002Z,59.88
2022-10-19T03:59:19.756Z,60.26
2022-10-19T04:01:49.920Z,59.47
2022-10-19T04:04:20.153Z,58.96
2022-10-19T04:06:49.178Z,58.14
2022-10-19T04:09:19.119Z,58.28
2022-10-19T04:11:48.126Z,57.98
2022-10-19T04:14:26.821Z,58.65
2022-10-19T04:17:06.452Z,57.81
2022-10-19T04:19:35.093Z,57.23
2022-10-19T04:22:05.641Z,57.20
2022-10-19T04:24:33.915Z,58.31
2022-10-19T04:27:04.063Z,58.22
2022-10-19T04:29:35.773Z,57.88
2022-10-19T04:32:09.748Z,58.43
2022-10-19T04:34:40.042Z,58.60
2022-10-19T04:37:09.606Z,58.36
2022-10-19T04:39:41.245Z,59.02
2022-10-19T04:42:11.059Z,60.34
2022-10-19T04:44:39.718Z,60.11
2022-10-19T04:47:13.508Z,59.79
2022-10-19T04:49:42.398Z,59.49
2022-10-19T04:52:14.504Z,58.95
2022-10-19T04:54:43.362Z,59.30
2022-10-19T04:57:13.497Z,59.19
2022-10-19T04:59:42.099Z,59.30
2022-10-19T05:02:17.793Z,59.93
2022-10-19T05:04:48.566Z,59.59
2022-10-19T05:07:17.715Z,59.92
2022-10-19T05:09:45.926Z,61.56
2022-10-19T05:12:19.061Z,62.63
2022-10-19T05:14:47.610Z,63.13
2022-10-19T05:17:25.203Z,63.62
2022-10-19T05:19:54.183Z,64.44
2022-10-19T05:22:23.050Z,65.45
2022-10-19T05:24:54.514Z,65.39
2022-10-19T05:27:27.110Z,65.84
2022-10-19T05:29:55.697Z,66.23
2022-10-19T05:32:26.531Z,67.26
2022-10-19T05:34:55.883Z,67.09
2022-10-19T05:37:25.736Z,67.02
2022-10-19T05:39:55.501Z,66.93
2022-10-19T05:42:24.660Z,68.25
2022-10-19T05:44:53.605Z,68.08
2022-10-19T05:47:26.230Z,67.05
2022-10-19T05:49:58.664Z,66.88
2022-10-19T05:52:30.692Z,67.17
2022-10-19T05:54:59.369Z,67.66
2022-10-19T05:57:34.084Z,66.65
2022-10-19T06:00:03.193Z,66.97
2022-10-19T06:02:40.320Z,67.15
2022-10-19T06:05:12.020Z,66.76
2022-10-19T06:07:43.568Z,67.57
2022-10-19T06:10:12.399Z,66.76
2022-10-19T06:12:44.236Z,67.76
2022-10-19T06:15:19.536Z,66.68
2022-10-19T06:17:48.127Z,66.39
2022-10-19T06:20:27.086Z,65.51
2022-10-19T06:22:55.957Z,65.48
2022-10-19T06:25:27.908Z,65.83
2022-10-19T06:28:06.099Z,65.49
2022-10-19T06:30:35.692Z,64.89
2022-10-19T06:33:06.318Z,65.98
2022-10-19T06:35:37.466Z,65.63
2022-10-19T06:38:07.891Z,65.22
2022-10-19T06:40:36.544Z,64.58
2022-10-19T06:43:05.735Z,64.60
2022-10-19T06:45:36.001Z,65.59
2022-10-19T06:48:08.100Z,64.90
2022-10-19T06:50:37.702Z,66.05
2022-10-19T06:53:09.394Z,65.62
2022-10-19T06:55:37.660Z,65.24
2022-10-19T07:00:38.253Z,65.18
2022-10-19T07:03:09.312Z,64.92
2022-10-19T07:05:42.822Z,65.01
2022-10-19T07:08:12.269Z,66.88
2022-10-19T07:10:43.759Z,66.69
2022-10-19T07:13:12.627Z,65.37
2022-10-19T07:15:41.944Z,67.03
2022-10-19T07:18:10.517Z,65.92
2022-10-19T07:20:43.659Z,66.26
2022-10-19T07:23:19.867Z,65.33
2022-10-19T07:25:48.764Z,65.42
2022-10-19T07:28:17.663Z,64.17
2022-10-19T07:30:49.058Z,64.01
2022-10-19T07:33:23.093Z,63.22
2022-10-19T07:35:59.581Z,63.58
2022-10-19T07:38:31.399Z,63.35
2022-10-19T07:41:05.264Z,63.58
2022-10-19T07:43:33.922Z,62.65
2022-10-19T07:46:02.934Z,62.70
2022-10-19T07:48:34.572Z,63.38
2022-10-19T07:51:05.362Z,62.52
2022-10-19T07:53:35.507Z,63.04
2022-10-19T07:56:06.118Z,62.92
2022-10-19T07:58:37.514Z,63.00
2022-10-19T08:01:12.355Z,63.69
2022-10-19T08:04:31.763Z,63.19
2022-10-19T08:06:32.163Z,62.84
2022-10-19T08:09:03.987Z,61.48
2022-10-19T08:11:34.102Z,60.44
2022-10-19T08:14:05.722Z,60.55
2022-10-19T08:16:39.212Z,60.36
2022-10-19T08:19:08.615Z,59.61
2022-10-19T08:21:44.734Z,58.93
2022-10-19T08:24:14.130Z,58.74
2022-10-19T08:26:44.498Z,59.36
2022-10-19T08:29:13.665Z,58.50
2022-10-19T08:31:44.083Z,58.52
2022-10-19T08:34:12.965Z,58.74
2022-10-19T08:36:50.465Z,58.13
2022-10-19T08:39:19.339Z,59.02
2022-10-19T08:41:55.254Z,58.77
2022-10-19T08:44:28.566Z,57.90
2022-10-19T08:47:01.529Z,56.98
2022-10-19T08:49:40.934Z,56.97
2022-10-19T08:52:14.075Z,55.17
2022-10-19T08:54:43.842Z,55.26
2022-10-19T08:57:16.888Z,55.16
2022-10-19T08:59:46.599Z,55.50
2022-10-19T09:02:16.611Z,53.92
2022-10-19T09:04:46.650Z,53.89
2022-10-19T09:07:22.033Z,52.84
2022-10-19T09:09:59.211Z,52.11
2022-10-19T09:12:35.377Z,52.42
2022-10-19T09:15:05.811Z,51.50
2022-10-19T09:17:35.583Z,51.21
2022-10-19T09:20:14.989Z,51.86
2022-10-19T09:22:45.165Z,51.60
2022-10-19T09:25:15.104Z,51.08
2022-10-19T09:27:44.908Z,51.00
2022-10-19T09:30:17.302Z,51.77
2022-10-19T09:32:48.222Z,50.53
2022-10-19T09:35:20.735Z,49.83
2022-10-19T09:37:59.799Z,50.65
2022-10-19T09:40:30.502Z,50.04
2022-10-19T09:43:03.005Z,48.93
2022-10-19T09:45:34.302Z,49.47
2022-10-19T09:48:07.139Z,48.65
2022-10-19T09:50:39.931Z,48.70
2022-10-19T09:53:17.071Z,47.90
2022-10-19T09:58:29.147Z,48.46
2022-10-19T10:01:01.176Z,48.15
2022-10-19T10:03:30.746Z,48.74
2022-10-19T10:06:03.678Z,47.59
2022-10-19T10:08:34.995Z,46.05
2022-10-19T10:11:08.395Z,44.26
2022-10-19T10:13:46.114Z,43.57
2022-10-19T10:16:15.934Z,45.37
2022-10-19T10:18:50.921Z,45.42
2022-10-19T10:24:22.674Z,44.91
2022-10-19T10:26:54.591Z,44.62
2022-10-19T10:29:23.590Z,43.75
2022-10-19T10:31:55.602Z,43.48
2022-10-19T10:34:45.409Z,41.69
2022-10-19T10:37:18.329Z,42.10
2022-10-19T10:39:48.267Z,42.07
2022-10-19T10:42:18.691Z,42.77
2022-10-19T10:44:47.306Z,41.01
2022-10-19T10:47:20.501Z,41.45
2022-10-19T10:49:54.668Z,43.53
2022-10-19T10:52:27.739Z,42.84
2022-10-19T10:57:49.793Z,43.17
2022-10-19T11:00:19.240Z,42.74
2022-10-19T11:02:52.769Z,41.94
2022-10-19T11:05:25.171Z,39.12
2022-10-19T11:07:54.679Z,39.60
2022-10-19T11:10:27.182Z,38.92
2022-10-19T11:12:59.303Z,39.26
2022-10-19T11:15:33.005Z,40.08
2022-10-19T11:18:04.203Z,41.23
2022-10-19T11:20:37.500Z,41.06
2022-10-19T11:23:09.149Z,40.80
2022-10-19T11:25:50.121Z,40.67
2022-10-19T11:28:22.460Z,41.15
2022-10-19T11:31:02.293Z,41.14
2022-10-19T11:33:35.739Z,41.88
2022-10-19T11:36:13.567Z,42.34
2022-10-19T11:38:44.546Z,43.20
2022-10-19T11:41:27.339Z,43.80
2022-10-19T11:44:00.185Z,44.61
2022-10-19T11:46:43.388Z,45.00
2022-10-19T11:49:14.847Z,44.35
2022-10-19T11:51:53.192Z,43.68
2022-10-19T11:54:25.962Z,44.00
2022-10-19T11:57:05.587Z,42.33
2022-10-19T11:59:39.143Z,42.75
2022-10-19T12:02:21.811Z,43.58
2022-10-19T12:04:52.568Z,42.84
2022-10-19T12:07:38.969Z,43.06
2022-10-19T12:10:13.184Z,42.80
2022-10-19T12:12:47.266Z,43.75
2022-10-19T12:15:24.196Z,43.92
2022-10-19T12:17:54.295Z,43.39
2022-10-19T12:20:27.635Z,43.92
2022-10-19T12:22:56.993Z,43.95
2022-10-19T12:25:30.420Z,42.78
2022-10-19T12:27:59.319Z,43.12
2022-10-19T12:30:31.217Z,42.59
2022-10-19T12:33:03.186Z,44.02
2022-10-19T12:35:46.885Z,44.39
2022-10-19T12:38:16.914Z,44.84
2022-10-19T12:40:46.459Z,45.12
2022-10-19T12:43:15.525Z,44.87
2022-10-19T12:45:46.857Z,44.55
2022-10-19T12:48:22.626Z,43.64
2022-10-19T12:51:12.001Z,43.86
2022-10-19T12:53:42.286Z,42.64
2022-10-19T12:56:12.867Z,40.89
2022-10-19T12:58:48.574Z,41.22
2022-10-19T13:01:20.229Z,41.38
2022-10-19T13:03:54.359Z,41.57
2022-10-19T13:06:31.606Z,41.41
2022-10-19T13:09:01.090Z,40.41
2022-10-19T13:11:36.593Z,39.66
2022-10-19T13:14:11.539Z,39.53
2022-10-19T13:16:56.682Z,39.31
2022-10-19T13:19:25.628Z,39.38
2022-10-19T13:22:22.674Z,40.01
2022-10-19T13:25:10.264Z,40.63
2022-10-19T13:27:41.788Z,39.87
2022-10-19T13:30:25.591Z,39.50
2022-10-19T13:32:55.239Z,40.32
2022-10-19T13:35:28.527Z,40.05
2022-10-19T13:38:13.204Z,40.69
2022-10-19T13:40:45.394Z,41.59
2022-10-19T13:43:17.846Z,41.80
2022-10-19T13:45:54.519Z,41.46
2022-10-19T13:48:25.655Z,41.83
2022-10-19T13:50:54.804Z,40.73
2022-10-19T13:53:24.959Z,41.36
2022-10-19T13:56:02.975Z,40.98
2022-10-19T13:58:49.331Z,41.64
2022-10-19T14:01:24.680Z,42.11
2022-10-19T14:03:59.985Z,42.48
2022-10-19T14:06:29.416Z,42.58
2022-10-19T14:09:15.190Z,42.31
2022-10-19T14:11:48.414Z,41.75
2022-10-19T14:14:22.684Z,41.74
2022-10-19T14:16:59.707Z,42.18
2022-10-19T14:19:44.613Z,39.94
2022-10-19T14:22:20.314Z,40.73
2022-10-19T14:24:57.565Z,41.21
2022-10-19T14:27:26.635Z,41.44
2022-10-19T14:30:09.190Z,41.49
2022-10-19T14:32:37.852Z,40.75
2022-10-19T14:35:23.346Z,40.74
2022-10-19T14:37:51.661Z,41.26
2022-10-19T14:40:26.812Z,42.10
2022-10-19T14:42:58.230Z,41.77
2022-10-19T14:45:34.841Z,42.67
2022-10-19T14:48:04.269Z,42.86
2022-10-19T14:50:48.339Z,43.21
2022-10-19T14:53:31.781Z,43.18
2022-10-19T14:56:02.772Z,43.64
2022-10-19T14:58:31.493Z,43.01
2022-10-19T15:01:00.679Z,42.83
2022-10-19T15:03:32.409Z,42.73
2022-10-19T15:06:01.578Z,42.37
2022-10-19T15:08:33.902Z,42.63
2022-10-19T15:11:04.178Z,42.86
2022-10-19T15:13:35.966Z,43.02
2022-10-19T15:16:04.953Z,43.69
2022-10-19T15:18:48.772Z,44.11
2022-10-19T15:21:19.860Z,43.73
2022-10-19T15:23:48.565Z,44.38
2022-10-19T15:26:20.471Z,44.22
2022-10-19T15:28:49.430Z,44.53
2022-10-19T15:31:21.620Z,43.93
2022-10-19T15:33:51.302Z,45.05
2022-10-19T15:36:21.708Z,45.09
2022-10-19T15:38:51.463Z,45.19
2022-10-19T15:41:26.260Z,44.87
2022-10-19T15:43:56.724Z,44.63
2022-10-19T15:46:27.057Z,44.96
2022-10-19T15:48:56.955Z,44.67
2022-10-19T15:51:33.281Z,44.67
2022-10-19T15:54:02.790Z,45.12
2022-10-19T15:56:37.782Z,44.84
2022-10-19T15:59:10.317Z,44.71
2022-10-19T16:01:39.610Z,44.65
2022-10-19T16:04:12.492Z,44.97
2022-10-19T16:06:41.938Z,46.23
2022-10-19T16:09:14.856Z,45.33
2022-10-19T16:11:45.118Z,46.33
2022-10-19T16:14:17.892Z,45.98
2022-10-19T16:16:46.459Z,46.09
2022-10-19T16:19:16.605Z,45.81
2022-10-19T16:21:50.037Z,45.19
2022-10-19T16:24:26.016Z,45.18
2022-10-19T16:27:01.657Z,45.69
2022-10-19T16:29:30.543Z,45.86
2022-10-19T16:31:59.487Z,45.23
2022-10-19T16:34:28.010Z,44.96
2022-10-19T16:36:56.877Z,45.80
2022-10-19T16:39:26.395Z,45.51
2022-10-19T16:41:59.171Z,45.92
2022-10-19T16:44:33.077Z,45.77
2022-10-19T16:47:03.564Z,45.14
2022-10-19T16:49:39.626Z,45.17
2022-10-19T16:52:07.845Z,44.90
2022-10-19T16:54:37.461Z,44.74
2022-10-19T16:57:12.212Z,44.98
2022-10-19T16:59:41.532Z,44.42
2022-10-19T17:02:13.564Z,45.02
2022-10-19T17:04:42.592Z,44.93
2022-10-19T17:07:13.238Z,45.08
2022-10-19T17:09:42.802Z,45.52
2022-10-19T17:12:15.540Z,45.94
2022-10-19T17:14:44.120Z,46.12
2022-10-19T17:17:15.074Z,46.01
2022-10-19T17:19:44.071Z,46.25
2022-10-19T17:22:15.943Z,46.15
2022-10-19T17:24:46.624Z,47.30
2022-10-19T17:27:21.341Z,47.82
2022-10-19T17:29:51.268Z,48.31
2022-10-19T17:32:23.379Z,48.43
2022-10-19T17:34:51.852Z,48.65
2022-10-19T17:37:20.847Z,48.55
2022-10-19T17:39:51.548Z,48.86
2022-10-19T17:42:26.820Z,48.71
2022-10-19T17:44:55.812Z,48.72
2022-10-19T17:47:30.843Z,49.33
2022-10-19T17:50:02.779Z,48.71
2022-10-19T17:52:32.131Z,48.44
2022-10-19T17:55:13.042Z,48.16
2022-10-19T17:57:51.018Z,48.39
2022-10-19T18:00:19.958Z,48.75
2022-10-19T18:02:52.474Z,48.89
2022-10-19T18:05:21.332Z,49.67
2022-10-19T18:07:52.086Z,49.03
2022-10-19T18:10:21.550Z,49.22
2022-10-19T18:12:54.682Z,48.30
2022-10-19T18:15:23.966Z,48.41
2022-10-19T18:17:58.110Z,48.43
2022-10-19T18:20:27.304Z,49.85
2022-10-19T18:22:57.699Z,49.83
2022-10-19T18:25:49.307Z,49.34
2022-10-19T18:28:24.031Z,49.77
2022-10-19T18:30:53.335Z,48.96
2022-10-19T18:33:24.090Z,49.12
2022-10-19T18:35:53.524Z,49.00
2022-10-19T18:38:26.853Z,49.00
2022-10-19T18:40:56.840Z,49.52
2022-10-19T18:43:30.290Z,49.75
2022-10-19T18:46:03.403Z,49.12
2022-10-19T18:48:36.575Z,49.45
2022-10-19T18:51:11.265Z,49.96
2022-10-19T18:53:41.488Z,49.61
2022-10-19T18:56:11.135Z,49.80
2022-10-19T18:58:41.973Z,49.53
2022-10-19T19:01:11.903Z,49.33
2022-10-19T19:03:41.983Z,49.63
2022-10-19T19:06:13.054Z,49.12
2022-10-19T19:08:42.251Z,49.86
2022-10-19T19:11:15.534Z,49.42
2022-10-19T19:13:57.562Z,50.29
2022-10-19T19:16:27.365Z,49.40
2022-10-19T19:18:57.356Z,49.72
2022-10-19T19:21:27.189Z,49.54
2022-10-19T19:23:58.933Z,49.99
2022-10-19T19:26:29.029Z,51.01
2022-10-19T19:29:02.893Z,51.29
2022-10-19T19:31:32.122Z,52.50
2022-10-19T19:34:03.001Z,51.16
2022-10-19T19:36:32.009Z,51.13
2022-10-19T19:39:07.168Z,51.24
2022-10-19T19:41:35.882Z,50.63
2022-10-19T19:44:06.756Z,51.24
2022-10-19T19:46:36.775Z,52.11
2022-10-19T19:49:05.924Z,52.67
2022-10-19T19:51:37.236Z,52.53
2022-10-19T19:54:07.605Z,53.25
2022-10-19T19:56:37.738Z,54.18
2022-10-19T19:59:13.638Z,53.74
2022-10-19T20:01:42.398Z,54.33
2022-10-19T20:04:11.760Z,54.41
2022-10-19T20:06:40.922Z,54.29
2022-10-19T20:09:12.416Z,54.89
2022-10-19T20:11:42.865Z,54.55
2022-10-19T20:14:16.854Z,55.36
2022-10-19T20:16:45.909Z,55.55
2022-10-19T20:19:15.654Z,55.18
2022-10-19T20:21:44.767Z,55.06
2022-10-19T20:24:14.454Z,55.88
2022-10-19T20:26:43.468Z,55.76
2022-10-19T20:29:22.769Z,56.08
2022-10-19T20:32:03.235Z,56.00
2022-10-19T20:34:32.047Z,54.94
2022-10-19T20:37:01.226Z,54.71
2022-10-19T20:39:30.003Z,55.11
2022-10-19T20:44:33.385Z,54.28
2022-10-19T20:47:03.753Z,54.11
2022-10-19T20:49:37.029Z,54.19
2022-10-19T20:52:05.960Z,54.69
2022-10-19T20:54:34.703Z,54.84
2022-10-19T20:57:03.360Z,55.04
2022-10-19T20:59:35.295Z,55.13
2022-10-19T21:02:05.600Z,54.63
2022-10-19T21:04:34.981Z,54.19
2022-10-19T21:07:15.437Z,54.26
2022-10-19T21:09:44.242Z,54.33
2022-10-19T21:12:16.692Z,53.99
2022-10-19T21:14:49.374Z,54.24
2022-10-19T21:17:21.184Z,54.36
2022-10-19T21:19:50.799Z,53.99
2022-10-19T21:22:22.555Z,53.83
2022-10-19T21:24:51.127Z,53.79
2022-10-19T21:27:21.141Z,54.35
2022-10-19T21:29:51.663Z,54.14
2022-10-19T21:32:24.618Z,54.14
2022-10-19T21:35:03.307Z,54.53
2022-10-19T21:37:32.342Z,54.08
2022-10-19T21:40:01.145Z,54.48
2022-10-19T21:42:29.765Z,53.86
2022-10-19T21:45:25.241Z,53.76
2022-10-19T21:47:52.430Z,53.95
2022-10-19T21:50:25.708Z,55.23
2022-10-19T21:52:54.733Z,54.35
2022-10-19T21:55:26.858Z,54.75
2022-10-19T21:57:55.167Z,54.74
2022-10-19T22:00:30.856Z,54.98
2022-10-19T22:03:00.733Z,54.66
2022-10-19T22:05:32.105Z,55.12
2022-10-19T22:08:00.636Z,54.42
2022-10-19T22:10:32.822Z,54.24
2022-10-19T22:13:02.255Z,55.25
2022-10-19T22:15:33.678Z,54.54
2022-10-19T22:18:04.263Z,54.96
2022-10-19T22:20:36.205Z,54.95
2022-10-19T22:23:05.034Z,54.94
2022-10-19T22:25:36.701Z,55.34
2022-10-19T22:28:05.746Z,55.37
2022-10-19T22:30:34.580Z,55.60
2022-10-19T22:33:08.564Z,55.13
2022-10-19T22:35:40.014Z,55.46
2022-10-19T22:38:08.554Z,55.23
2022-10-19T22:40:37.348Z,55.35
2022-10-19T22:43:09.060Z,55.56
2022-10-19T22:45:39.838Z,55.21
2022-10-19T22:48:12.564Z,54.99
2022-10-19T22:50:43.229Z,54.88
2022-10-19T22:53:11.943Z,55.27
2022-10-19T22:55:42.660Z,55.85
2022-10-19T23:00:47.114Z,55.83
2022-10-19T23:03:17.788Z,55.09
2022-10-19T23:05:48.916Z,55.75
2022-10-19T23:08:17.323Z,55.64
2022-10-19T23:10:46.273Z,55.61
2022-10-19T23:13:16.551Z,55.50
2022-10-19T23:15:52.309Z,55.81
2022-10-19T23:18:22.681Z,56.22
2022-10-19T23:20:54.280Z,56.32
2022-10-19T23:23:23.339Z,56.80
2022-10-19T23:25:58.568Z,56.42
2022-10-19T23:28:28.126Z,56.87
2022-10-19T23:30:58.577Z,56.54
2022-10-19T23:33:31.512Z,56.99
2022-10-19T23:36:04.199Z,56.77
2022-10-19T23:38:37.409Z,56.74
2022-10-19T23:41:05.773Z,57.20
2022-10-19T23:43:42.187Z,57.12
2022-10-19T23:46:10.931Z,57.27
2022-10-19T23:48:43.342Z,57.27
2022-10-19T23:51:12.550Z,56.69
2022-10-19T23:53:42.968Z,56.81
2022-10-19T23:56:12.473Z,56.57
2022-10-19T23:58:46.615Z,56.77
